createdAt,value
2023-03-26T00:01:33.517Z,11.20
2023-03-26T00:04:02.176Z,11.20
2023-03-26T00:06:31.837Z,11.20
2023-03-26T00:09:00.480Z,11.10
2023-03-26T00:11:30.127Z,11.10
2023-03-26T00:13:58.867Z,11.10
2023-03-26T00:16:30.128Z,11.20
2023-03-26T00:18:59.642Z,11.20
2023-03-26T00:21:29.438Z,11.20
2023-03-26T00:23:59.704Z,11.10
2023-03-26T00:26:29.385Z,11.10
2023-03-26T00:28:57.864Z,11.10
2023-03-26T00:31:25.952Z,11.00
2023-03-26T00:33:56.690Z,11.10
2023-03-26T00:36:26.806Z,11.10
2023-03-26T00:38:55.670Z,11.00
2023-03-26T00:41:26.843Z,11.00
2023-03-26T00:43:57.071Z,11.00
2023-03-26T00:46:26.513Z,11.00
2023-03-26T00:48:58.630Z,11.10
2023-03-26T00:51:27.952Z,11.00
2023-03-26T00:53:56.132Z,11.00
2023-03-26T00:56:24.669Z,11.00
2023-03-26T00:58:52.762Z,11.00
2023-03-26T01:01:27.431Z,11.00
2023-03-26T01:04:07.385Z,11.00
2023-03-26T01:06:42.069Z,11.00
2023-03-26T01:09:16.139Z,11.00
2023-03-26T01:11:45.069Z,11.00
2023-03-26T01:14:16.911Z,11.00
2023-03-26T01:16:50.093Z,11.00
2023-03-26T01:19:29.181Z,11.00
2023-03-26T01:21:58.838Z,10.90
2023-03-26T01:24:28.461Z,11.00
2023-03-26T01:27:20.723Z,11.00
2023-03-26T01:29:55.623Z,11.00
2023-03-26T01:32:33.062Z,11.00
2023-03-26T01:35:18.927Z,10.90
2023-03-26T01:37:58.622Z,10.90
2023-03-26T01:40:38.478Z,10.90
2023-03-26T01:43:13.569Z,10.90
2023-03-26T01:45:45.671Z,10.90
2023-03-26T01:48:14.558Z,10.90
2023-03-26T01:50:42.988Z,10.90
2023-03-26T01:53:14.213Z,10.90
2023-03-26T01:55:53.883Z,10.90
2023-03-26T01:58:30.024Z,10.90
2023-03-26T02:01:07.288Z,10.90
2023-03-26T02:03:40.226Z,10.90
2023-03-26T02:06:15.765Z,10.90
2023-03-26T02:08:51.241Z,10.90
2023-03-26T02:11:21.559Z,10.90
2023-03-26T02:13:52.689Z,10.90
2023-03-26T02:16:21.622Z,10.90
2023-03-26T02:18:55.680Z,10.90
2023-03-26T02:21:25.996Z,10.90
2023-03-26T02:23:57.792Z,10.90
2023-03-26T02:26:27.576Z,10.90
2023-03-26T02:29:01.748Z,10.90
2023-03-26T02:31:30.584Z,10.90
2023-03-26T02:33:58.828Z,10.90
2023-03-26T02:36:29.203Z,10.90
2023-03-26T02:39:01.201Z,10.80
2023-03-26T02:41:34.335Z,10.80
2023-03-26T02:44:06.834Z,10.80
2023-03-26T02:47:09.985Z,10.80
2023-03-26T02:49:52.864Z,10.80
2023-03-26T02:52:49.058Z,10.80
2023-03-26T02:55:17.409Z,10.80
2023-03-26T02:57:47.942Z,10.60
2023-03-26T03:00:22.001Z,10.70
2023-03-26T03:02:57.848Z,10.70
2023-03-26T03:05:32.464Z,10.70
2023-03-26T03:08:19.436Z,10.70
2023-03-26T03:11:23.498Z,10.60
2023-03-26T03:13:54.699Z,10.70
2023-03-26T03:16:25.668Z,10.70
2023-03-26T03:18:57.461Z,10.70
2023-03-26T03:21:29.658Z,10.70
2023-03-26T03:24:00.162Z,10.70
2023-03-26T03:26:30.502Z,10.70
2023-03-26T03:29:05.090Z,10.70
2023-03-26T03:31:33.294Z,10.60
2023-03-26T03:34:05.611Z,10.60
2023-03-26T03:36:38.411Z,10.60
2023-03-26T03:39:14.997Z,10.60
2023-03-26T03:41:43.194Z,10.60
2023-03-26T03:44:16.737Z,10.60
2023-03-26T03:46:45.128Z,10.70
2023-03-26T03:49:13.291Z,10.70
2023-03-26T03:51:42.485Z,10.70
2023-03-26T03:54:19.728Z,10.60
2023-03-26T03:56:49.028Z,10.70
2023-03-26T03:59:18.535Z,10.70
2023-03-26T04:01:48.408Z,10.70
2023-03-26T04:04:25.844Z,10.70
2023-03-26T04:07:01.032Z,10.70
2023-03-26T04:09:37.849Z,10.70
2023-03-26T04:12:14.107Z,10.60
2023-03-26T04:14:49.011Z,10.60
2023-03-26T04:17:21.832Z,10.60
2023-03-26T04:19:50.259Z,10.60
2023-03-26T04:22:19.871Z,10.60
2023-03-26T04:24:54.857Z,10.60
2023-03-26T04:27:32.450Z,10.60
2023-03-26T04:30:20.836Z,10.60
2023-03-26T04:33:15.505Z,10.60
2023-03-26T04:35:48.271Z,10.60
2023-03-26T04:38:18.340Z,10.50
2023-03-26T04:40:49.098Z,10.60
2023-03-26T04:43:31.470Z,10.60
2023-03-26T04:46:21.628Z,10.60
2023-03-26T04:48:56.067Z,10.50
2023-03-26T04:51:27.959Z,10.60
2023-03-26T04:54:00.131Z,10.60
2023-03-26T04:56:44.074Z,10.60
2023-03-26T04:59:30.418Z,10.60
2023-03-26T05:02:01.320Z,10.50
2023-03-26T05:04:34.546Z,10.50
2023-03-26T05:07:03.169Z,10.50
2023-03-26T05:09:40.687Z,10.40
2023-03-26T05:12:17.417Z,10.50
2023-03-26T05:15:00.345Z,10.40
2023-03-26T05:17:46.853Z,10.40
2023-03-26T05:20:26.840Z,10.30
2023-03-26T05:22:55.706Z,10.30
2023-03-26T05:25:27.719Z,10.30
2023-03-26T05:27:56.688Z,10.30
2023-03-26T05:30:29.013Z,10.20
2023-03-26T05:33:04.382Z,10.40
2023-03-26T05:35:41.634Z,10.30
2023-03-26T05:38:10.723Z,10.30
2023-03-26T05:40:39.166Z,10.40
2023-03-26T05:43:08.533Z,10.40
2023-03-26T05:45:48.891Z,10.50
2023-03-26T05:48:38.046Z,10.50
2023-03-26T05:51:07.805Z,10.40
2023-03-26T05:53:36.377Z,10.50
2023-03-26T05:56:33.368Z,10.50
2023-03-26T05:59:13.229Z,10.50
2023-03-26T06:02:00.098Z,10.60
2023-03-26T06:04:52.527Z,10.50
2023-03-26T06:07:37.656Z,10.40
2023-03-26T06:10:11.818Z,10.40
2023-03-26T06:12:46.850Z,10.40
2023-03-26T06:15:15.467Z,10.40
2023-03-26T06:17:47.938Z,10.40
2023-03-26T06:20:35.562Z,10.40
2023-03-26T06:23:09.685Z,10.40
2023-03-26T06:26:03.807Z,10.40
2023-03-26T06:28:45.918Z,10.40
2023-03-26T06:31:34.358Z,10.40
2023-03-26T06:34:15.517Z,10.40
2023-03-26T06:36:45.116Z,10.40
2023-03-26T06:39:13.407Z,10.40
2023-03-26T06:41:49.749Z,10.40
2023-03-26T06:44:40.456Z,10.40
2023-03-26T06:47:26.899Z,10.40
2023-03-26T06:50:13.496Z,10.50
2023-03-26T06:53:03.187Z,10.50
2023-03-26T06:55:46.983Z,10.50
2023-03-26T06:58:29.603Z,10.50
2023-03-26T07:01:17.953Z,10.60
2023-03-26T07:04:04.656Z,10.60
2023-03-26T07:06:51.178Z,10.60
2023-03-26T07:09:39.350Z,10.60
2023-03-26T07:12:39.496Z,10.70
2023-03-26T07:15:22.562Z,10.60
2023-03-26T07:18:09.750Z,10.50
2023-03-26T07:20:40.497Z,10.50
2023-03-26T07:23:11.318Z,10.60
2023-03-26T07:26:15.632Z,10.60
2023-03-26T07:29:04.738Z,10.60
2023-03-26T07:31:58.124Z,10.60
2023-03-26T07:34:53.927Z,10.60
2023-03-26T07:37:39.482Z,10.60
2023-03-26T07:40:45.018Z,10.60
2023-03-26T07:43:54.188Z,10.50
2023-03-26T07:46:53.230Z,10.50
2023-03-26T07:49:45.070Z,10.60
2023-03-26T07:52:25.702Z,10.60
2023-03-26T07:55:05.099Z,10.60
2023-03-26T07:58:18.591Z,10.60
2023-03-26T08:01:10.097Z,10.60
2023-03-26T08:04:23.832Z,10.70
2023-03-26T08:07:45.029Z,10.70
2023-03-26T08:10:27.127Z,10.70
2023-03-26T08:13:09.134Z,10.70
2023-03-26T08:15:43.916Z,10.70
2023-03-26T08:18:27.443Z,10.70
2023-03-26T08:21:14.077Z,10.70
2023-03-26T08:24:01.536Z,10.60
2023-03-26T08:26:38.584Z,10.70
2023-03-26T08:29:18.929Z,10.70
2023-03-26T08:31:49.900Z,10.60
2023-03-26T08:34:19.279Z,10.70
2023-03-26T08:36:47.566Z,10.70
2023-03-26T08:39:15.727Z,10.70
2023-03-26T08:42:17.073Z,10.70
2023-03-26T08:45:18.920Z,10.70
2023-03-26T08:48:29.958Z,10.70
2023-03-26T08:51:23.423Z,10.70
2023-03-26T08:54:15.682Z,10.70
2023-03-26T08:56:53.660Z,10.70
2023-03-26T09:00:02.862Z,10.70
2023-03-26T09:03:01.240Z,10.70
2023-03-26T09:06:01.191Z,10.70
2023-03-26T09:09:04.549Z,10.70
2023-03-26T09:12:06.253Z,10.70
2023-03-26T09:14:59.778Z,10.70
2023-03-26T09:17:57.863Z,10.80
2023-03-26T09:21:01.206Z,10.80
2023-03-26T09:24:15.689Z,10.80
2023-03-26T09:26:51.298Z,10.80
2023-03-26T09:30:02.343Z,10.80
2023-03-26T09:33:18.214Z,10.80
2023-03-26T09:35:53.587Z,10.90
2023-03-26T09:38:44.511Z,10.90
2023-03-26T09:41:28.166Z,10.90
2023-03-26T09:44:31.844Z,10.90
2023-03-26T09:47:34.766Z,10.90
2023-03-26T09:50:20.157Z,10.90
2023-03-26T09:53:01.228Z,10.80
2023-03-26T09:55:46.459Z,10.80
2023-03-26T09:58:34.660Z,10.70
2023-03-26T10:01:11.113Z,10.70
2023-03-26T10:04:05.976Z,10.70
2023-03-26T10:06:49.633Z,10.70
2023-03-26T10:09:44.269Z,10.70
2023-03-26T10:12:25.836Z,10.70
2023-03-26T10:15:17.952Z,10.80
2023-03-26T10:17:57.738Z,10.80
2023-03-26T10:20:50.411Z,10.70
2023-03-26T10:23:32.867Z,10.70
2023-03-26T10:26:16.232Z,10.70
2023-03-26T10:29:12.850Z,10.70
2023-03-26T10:31:48.608Z,10.80
2023-03-26T10:34:30.373Z,10.80
2023-03-26T10:37:07.706Z,10.80
2023-03-26T10:39:56.369Z,10.80
2023-03-26T10:42:42.838Z,10.80
2023-03-26T10:45:22.417Z,10.80
2023-03-26T10:48:13.136Z,10.80
2023-03-26T10:50:56.724Z,10.80
2023-03-26T10:53:34.157Z,10.90
2023-03-26T10:56:13.576Z,10.90
2023-03-26T10:58:48.239Z,10.90
2023-03-26T11:01:25.957Z,11.00
2023-03-26T11:03:56.699Z,10.90
2023-03-26T11:06:41.218Z,11.00
2023-03-26T11:09:22.879Z,11.00
2023-03-26T11:11:57.346Z,11.00
2023-03-26T11:14:34.812Z,11.00
2023-03-26T11:17:14.867Z,11.00
2023-03-26T11:20:08.207Z,11.20
2023-03-26T11:22:48.536Z,11.40
2023-03-26T11:25:42.247Z,11.70
2023-03-26T11:28:23.716Z,11.70
2023-03-26T11:30:58.629Z,11.70
2023-03-26T11:33:32.845Z,11.60
2023-03-26T11:36:06.913Z,11.60
2023-03-26T11:38:38.312Z,11.60
2023-03-26T11:41:13.736Z,11.60
2023-03-26T11:44:05.444Z,11.50
2023-03-26T11:46:40.746Z,11.50
2023-03-26T11:49:13.142Z,11.50
2023-03-26T11:51:43.350Z,11.40
2023-03-26T11:54:13.829Z,11.40
2023-03-26T11:57:05.914Z,11.50
2023-03-26T11:59:53.191Z,11.70
2023-03-26T12:02:32.346Z,11.70
2023-03-26T12:05:22.186Z,11.70
2023-03-26T12:07:58.974Z,11.80
2023-03-26T12:10:37.666Z,11.70
2023-03-26T12:13:29.144Z,11.80
2023-03-26T12:16:01.489Z,12.00
2023-03-26T12:18:29.824Z,12.20
2023-03-26T12:21:08.778Z,12.30
2023-03-26T12:23:44.768Z,12.30
2023-03-26T12:26:17.121Z,12.40
2023-03-26T12:28:46.442Z,12.40
2023-03-26T12:31:18.131Z,12.30
2023-03-26T12:33:52.798Z,12.20
2023-03-26T12:36:26.435Z,12.20
2023-03-26T12:39:15.969Z,12.10
2023-03-26T12:44:44.760Z,12.10
2023-03-26T12:44:54.390Z,12.10
2023-03-26T12:47:58.312Z,12.20
2023-03-26T12:50:17.687Z,12.30
2023-03-26T12:53:14.988Z,12.30
2023-03-26T12:55:54.463Z,12.30
2023-03-26T12:58:38.228Z,12.20
2023-03-26T13:01:15.899Z,12.20
2023-03-26T13:04:08.349Z,12.10
2023-03-26T13:06:59.548Z,12.00
2023-03-26T13:09:46.635Z,12.00
2023-03-26T13:12:27.487Z,12.00
2023-03-26T13:15:09.698Z,12.10
2023-03-26T13:17:44.964Z,12.10
2023-03-26T13:20:18.848Z,12.10
2023-03-26T13:22:56.303Z,12.10
2023-03-26T13:25:34.996Z,12.20
2023-03-26T13:28:16.509Z,12.30
2023-03-26T13:30:52.211Z,12.30
2023-03-26T13:33:33.359Z,12.40
2023-03-26T13:36:22.505Z,12.40
2023-03-26T13:39:04.927Z,12.50
2023-03-26T13:41:44.346Z,12.60
2023-03-26T13:44:23.920Z,12.60
2023-03-26T13:46:56.066Z,12.70
2023-03-26T13:49:30.192Z,12.70
2023-03-26T13:52:02.040Z,12.60
2023-03-26T13:54:32.926Z,12.60
2023-03-26T13:57:07.432Z,12.60
2023-03-26T13:59:41.520Z,12.60
2023-03-26T14:02:15.002Z,12.60
2023-03-26T14:04:48.434Z,12.60
2023-03-26T14:07:23.377Z,12.50
2023-03-26T14:09:57.868Z,12.50
2023-03-26T14:12:37.390Z,12.50
2023-03-26T14:15:11.707Z,12.60
2023-03-26T14:17:47.338Z,12.70
2023-03-26T14:20:49.174Z,12.80
2023-03-26T14:23:33.262Z,12.80
2023-03-26T14:26:12.600Z,12.90
2023-03-26T14:29:03.759Z,12.90
2023-03-26T14:31:37.535Z,12.90
2023-03-26T14:34:29.200Z,12.90
2023-03-26T14:37:27.325Z,12.90
2023-03-26T14:40:16.622Z,12.90
2023-03-26T14:42:56.419Z,12.90
2023-03-26T14:45:43.757Z,12.90
2023-03-26T14:48:45.632Z,12.90
2023-03-26T14:51:29.778Z,12.90
2023-03-26T14:54:02.781Z,12.90
2023-03-26T14:56:47.792Z,12.90
2023-03-26T14:59:51.817Z,12.90
2023-03-26T15:02:57.341Z,12.90
2023-03-26T15:06:03.301Z,12.80
2023-03-26T15:09:15.867Z,12.80
2023-03-26T15:11:52.546Z,12.80
2023-03-26T15:15:14.284Z,12.70
2023-03-26T15:18:27.675Z,12.70
2023-03-26T15:21:30.335Z,12.70
2023-03-26T15:24:31.210Z,12.60
2023-03-26T15:27:39.254Z,12.50
2023-03-26T15:30:38.773Z,12.60
2023-03-26T15:33:35.201Z,12.50
2023-03-26T15:36:29.251Z,12.40
2023-03-26T15:39:27.746Z,12.40
2023-03-26T15:42:05.668Z,12.10
2023-03-26T15:44:54.042Z,11.30
2023-03-26T15:47:55.346Z,11.30
2023-03-26T15:50:33.059Z,11.20
2023-03-26T15:53:14.549Z,11.20
2023-03-26T15:55:53.658Z,11.20
2023-03-26T15:58:28.721Z,11.10
2023-03-26T16:01:07.977Z,10.90
2023-03-26T16:03:48.034Z,10.90
2023-03-26T16:06:46.502Z,10.90
2023-03-26T16:09:48.002Z,10.90
2023-03-26T16:12:33.080Z,10.80
2023-03-26T16:15:22.239Z,10.80
2023-03-26T16:18:27.050Z,10.90
2023-03-26T16:21:04.083Z,10.90
2023-03-26T16:23:53.595Z,10.90
2023-03-26T16:26:26.634Z,10.80
2023-03-26T16:29:22.181Z,10.90
2023-03-26T16:32:14.214Z,10.90
2023-03-26T16:34:50.456Z,10.90
2023-03-26T16:37:37.628Z,10.90
2023-03-26T16:40:28.747Z,10.90
2023-03-26T16:43:05.215Z,10.90
2023-03-26T16:45:38.664Z,10.90
2023-03-26T16:48:18.015Z,10.90
2023-03-26T16:50:52.595Z,10.90
2023-03-26T16:53:41.553Z,10.90
2023-03-26T16:56:17.810Z,10.90
2023-03-26T16:58:55.881Z,10.90
2023-03-26T17:01:35.672Z,11.00
2023-03-26T17:04:07.624Z,11.00
2023-03-26T17:07:04.400Z,11.00
2023-03-26T17:09:44.761Z,10.90
2023-03-26T17:12:19.826Z,10.90
2023-03-26T17:15:01.309Z,11.00
2023-03-26T17:17:54.272Z,11.00
2023-03-26T17:20:33.974Z,10.90
2023-03-26T17:23:14.895Z,10.90
2023-03-26T17:25:54.739Z,10.80
2023-03-26T17:28:42.553Z,10.80
2023-03-26T17:31:21.101Z,10.90
2023-03-26T17:33:51.342Z,10.90
2023-03-26T17:36:41.544Z,10.90
2023-03-26T17:39:43.525Z,10.90
2023-03-26T17:42:27.053Z,10.90
2023-03-26T17:44:56.160Z,10.90
2023-03-26T17:47:33.520Z,10.90
2023-03-26T17:50:08.152Z,10.80
2023-03-26T17:52:49.079Z,10.80
2023-03-26T17:55:20.816Z,10.70
2023-03-26T17:57:52.435Z,10.70
2023-03-26T18:00:23.953Z,10.70
2023-03-26T18:02:57.249Z,10.70
2023-03-26T18:05:30.323Z,10.70
2023-03-26T18:08:25.032Z,10.80
2023-03-26T18:11:17.410Z,10.70
2023-03-26T18:14:09.684Z,10.70
2023-03-26T18:16:40.488Z,10.70
2023-03-26T18:19:18.226Z,10.60
2023-03-26T18:21:50.230Z,10.60
2023-03-26T18:24:22.431Z,10.70
2023-03-26T18:26:55.742Z,10.60
2023-03-26T18:29:25.659Z,10.60
2023-03-26T18:32:00.285Z,10.60
2023-03-26T18:34:31.844Z,10.70
2023-03-26T18:37:14.615Z,10.60
2023-03-26T18:39:43.500Z,10.60
2023-03-26T18:42:22.745Z,10.50
2023-03-26T18:44:53.857Z,10.60
2023-03-26T18:47:30.352Z,10.50
2023-03-26T18:49:59.201Z,10.50
2023-03-26T18:52:29.484Z,10.40
2023-03-26T18:54:59.320Z,10.50
2023-03-26T18:57:30.122Z,10.50
2023-03-26T19:00:15.613Z,10.50
2023-03-26T19:02:44.523Z,10.40
2023-03-26T19:05:16.550Z,10.50
2023-03-26T19:07:47.123Z,10.50
2023-03-26T19:10:21.981Z,10.40
2023-03-26T19:12:56.528Z,10.40
2023-03-26T19:15:26.538Z,10.40
2023-03-26T19:17:59.780Z,10.50
2023-03-26T19:20:30.525Z,10.50
2023-03-26T19:23:00.136Z,10.50
2023-03-26T19:25:32.075Z,10.50
2023-03-26T19:28:00.492Z,10.50
2023-03-26T19:30:32.777Z,10.50
2023-03-26T19:33:12.340Z,10.50
2023-03-26T19:35:43.320Z,10.50
2023-03-26T19:38:22.574Z,10.50
2023-03-26T19:40:52.523Z,10.60
2023-03-26T19:43:21.143Z,10.50
2023-03-26T19:46:00.470Z,10.50
2023-03-26T19:48:46.132Z,10.40
2023-03-26T19:51:20.966Z,10.60
2023-03-26T19:53:54.051Z,10.60
2023-03-26T19:56:23.245Z,10.50
2023-03-26T19:58:51.636Z,10.60
2023-03-26T20:01:22.038Z,10.60
2023-03-26T20:03:53.034Z,10.60
2023-03-26T20:06:30.821Z,10.50
2023-03-26T20:09:07.749Z,10.50
2023-03-26T20:11:39.139Z,10.50
2023-03-26T20:14:14.652Z,10.50
2023-03-26T20:16:45.355Z,10.50
2023-03-26T20:19:14.321Z,10.50
2023-03-26T20:21:42.904Z,10.50
2023-03-26T20:24:15.927Z,10.50
2023-03-26T20:26:43.983Z,10.50
2023-03-26T20:29:12.843Z,10.50
2023-03-26T20:31:42.128Z,10.50
2023-03-26T20:34:17.179Z,10.50
2023-03-26T20:36:46.075Z,10.50
2023-03-26T20:39:15.565Z,10.50
2023-03-26T20:41:47.199Z,10.50
2023-03-26T20:44:17.342Z,10.50
2023-03-26T20:46:46.610Z,10.50
2023-03-26T20:49:15.738Z,10.60
2023-03-26T20:51:45.001Z,10.40
2023-03-26T20:54:17.869Z,10.40
2023-03-26T20:56:47.674Z,10.40
2023-03-26T20:59:22.667Z,10.40
2023-03-26T21:01:51.638Z,10.30
2023-03-26T21:04:20.586Z,10.30
2023-03-26T21:06:48.882Z,10.30
2023-03-26T21:09:23.574Z,10.30
2023-03-26T21:12:01.659Z,10.30
2023-03-26T21:14:34.038Z,10.30
2023-03-26T21:17:02.656Z,10.40
2023-03-26T21:19:31.318Z,10.30
2023-03-26T21:22:07.403Z,10.30
2023-03-26T21:24:52.207Z,10.20
2023-03-26T21:27:26.219Z,10.20
2023-03-26T21:29:55.246Z,10.20
2023-03-26T21:32:24.173Z,10.20
2023-03-26T21:34:58.449Z,10.10
2023-03-26T21:37:28.524Z,10.20
2023-03-26T21:39:59.758Z,10.20
2023-03-26T21:42:29.305Z,10.20
2023-03-26T21:44:57.923Z,10.10
2023-03-26T21:47:26.937Z,10.20
2023-03-26T21:49:55.653Z,10.10
2023-03-26T21:52:24.460Z,10.20
2023-03-26T21:54:53.189Z,10.20
2023-03-26T21:57:33.881Z,10.10
2023-03-26T22:00:12.551Z,10.20
2023-03-26T22:02:54.342Z,10.10
2023-03-26T22:05:27.945Z,10.10
2023-03-26T22:07:58.987Z,10.20
2023-03-26T22:10:27.344Z,10.10
2023-03-26T22:12:56.826Z,10.10
2023-03-26T22:15:30.417Z,10.00
2023-03-26T22:18:01.908Z,10.10
2023-03-26T22:20:30.049Z,10.00
2023-03-26T22:22:58.907Z,10.00
2023-03-26T22:25:27.528Z,10.00
2023-03-26T22:27:57.392Z,10.00
2023-03-26T22:30:25.663Z,10.00
2023-03-26T22:32:53.829Z,10.00
2023-03-26T22:35:21.909Z,9.90
2023-03-26T22:37:50.392Z,10.00
2023-03-26T22:40:18.659Z,10.00
2023-03-26T22:42:46.665Z,9.90
2023-03-26T22:45:17.138Z,9.90
2023-03-26T22:47:45.426Z,9.90
2023-03-26T22:50:13.605Z,9.90
2023-03-26T22:52:41.964Z,10.00
2023-03-26T22:55:11.659Z,10.00
2023-03-26T22:57:41.346Z,9.80
2023-03-26T23:00:16.258Z,9.80
2023-03-26T23:02:46.567Z,9.90
2023-03-26T23:05:17.368Z,9.70
2023-03-26T23:07:45.948Z,9.70
2023-03-26T23:10:14.160Z,9.70
2023-03-26T23:12:42.405Z,9.80
2023-03-26T23:15:11.262Z,9.70
2023-03-26T23:17:39.604Z,9.70
2023-03-26T23:20:14.622Z,9.60
2023-03-26T23:22:43.859Z,9.70
2023-03-26T23:25:12.798Z,9.60
2023-03-26T23:27:41.250Z,9.60
2023-03-26T23:30:11.652Z,9.70
2023-03-26T23:32:40.661Z,9.70
2023-03-26T23:35:11.141Z,9.70
2023-03-26T23:37:42.281Z,9.60
2023-03-26T23:40:12.402Z,9.60
2023-03-26T23:42:40.460Z,9.60
2023-03-26T23:45:09.340Z,9.60
2023-03-26T23:47:42.098Z,9.50
2023-03-26T23:50:12.835Z,9.50
2023-03-26T23:52:40.976Z,9.40
2023-03-26T23:55:09.735Z,9.50
2023-03-26T23:57:38.020Z,9.50
